Time;durP1;ratioP1;P1;durP2;ratioP2;P2;SDS_P1;SDS_P2;PMS_P1;PMS_P2;Temp;Humidity;BMP_temperature;BMP_pressure;BME280_temperature;BME280_humidity;BME280_pressure;Samples;Min_cycle;Max_cycle;Signal;HPM_P1;HPM_P2
2022/04/02 00:05:39;;;;;;;31.73;16.55;;;;;;;-0.02;100.00;97427.57;4190251;84;20982;-85
2022/04/02 00:11:40;;;;;;;26.40;14.30;;;;;;;0.03;100.00;97433.47;4238673;83;21631;-85
2022/04/02 00:17:41;;;;;;;22.27;14.78;;;;;;;0.02;99.97;97424.40;4237466;83;20996;-86
2022/04/02 00:23:44;;;;;;;22.20;15.05;;;;;;;-0.01;99.90;97422.40;4238122;83;21887;-85
2022/04/02 00:29:45;;;;;;;19.37;13.55;;;;;;;0.02;100.00;97421.71;4234471;83;21551;-85
2022/04/02 00:35:46;;;;;;;20.10;14.00;;;;;;;0.03;99.90;97426.75;4239026;83;21043;-86
2022/04/02 00:41:48;;;;;;;17.92;11.40;;;;;;;0.05;100.00;97437.75;4241861;83;21028;-85
2022/04/02 00:47:49;;;;;;;18.85;12.63;;;;;;;0.02;100.00;97440.55;4239071;83;21023;-85
2022/04/02 00:53:51;;;;;;;15.68;11.30;;;;;;;0.07;100.00;97444.89;4232667;83;21528;-86
2022/04/02 00:59:53;;;;;;;20.52;13.75;;;;;;;0.13;100.00;97447.55;4244142;83;21011;-86
2022/04/02 01:05:54;;;;;;;19.07;12.50;;;;;;;0.10;100.00;97452.27;4230622;83;21087;-86
2022/04/02 01:11:57;;;;;;;18.55;13.53;;;;;;;0.12;100.00;97455.41;4200116;82;21105;-86
2022/04/02 01:18:02;;;;;;;17.85;13.50;;;;;;;0.08;100.00;97442.44;4194271;82;21024;-85
2022/04/02 01:24:06;;;;;;;20.57;15.38;;;;;;;0.14;100.00;97448.58;4225366;82;20975;-86
2022/04/02 01:30:09;;;;;;;21.65;14.53;;;;;;;0.08;99.84;97452.62;4228498;83;22338;-86
2022/04/02 01:36:11;;;;;;;26.23;17.77;;;;;;;0.03;99.74;97456.92;4234735;83;21010;-86
2022/04/02 01:42:24;;;;;;;17.07;11.93;;;;;;;-0.01;99.58;97454.68;4234416;82;21031;-87
2022/04/02 01:48:25;;;;;;;16.17;10.10;;;;;;;0.00;99.78;97455.69;4232812;83;21022;-87
2022/04/02 01:54:28;;;;;;;19.48;13.03;;;;;;;0.05;99.90;97461.95;4230292;82;21071;-86
2022/04/02 02:00:32;;;;;;;17.07;12.55;;;;;;;0.06;99.98;97458.92;4238014;82;21541;-85
2022/04/02 02:06:38;;;;;;;18.82;12.20;;;;;;;0.12;100.00;97466.97;4206141;82;21030;-85
2022/04/02 02:12:39;;;;;;;20.72;13.75;;;;;;;0.14;99.84;97463.37;4230083;83;21130;-84
2022/04/02 02:18:47;;;;;;;16.73;12.30;;;;;;;0.20;99.86;97477.35;4227551;83;21042;-84
2022/04/02 02:24:49;;;;;;;16.35;11.85;;;;;;;0.14;99.62;97474.14;4231637;82;21062;-83
2022/04/02 02:30:52;;;;;;;15.38;11.38;;;;;;;0.08;99.30;97475.48;4195173;83;21070;-84
2022/04/02 02:36:54;;;;;;;16.07;11.68;;;;;;;0.09;99.64;97476.28;4151410;84;21046;-84
2022/04/02 02:42:56;;;;;;;15.95;11.12;;;;;;;0.15;99.51;97473.55;4206533;82;21013;-85
2022/04/02 02:49:02;;;;;;;16.05;11.15;;;;;;;0.15;99.51;97473.55;4210359;83;21019;-86
2022/04/02 02:55:05;;;;;;;19.12;11.57;;;;;;;0.15;99.41;97477.59;4216761;83;21628;-87
2022/04/02 03:01:11;;;;;;;17.10;11.85;;;;;;;0.07;99.45;97468.55;4182489;84;21018;-86
2022/04/02 03:07:13;;;;;;;16.70;12.33;;;;;;;0.11;99.50;97479.41;4197268;83;21559;-87
2022/04/02 03:13:16;;;;;;;17.80;11.88;;;;;;;0.12;99.48;97480.97;4191254;83;21088;-86
2022/04/02 03:19:18;;;;;;;16.05;11.43;;;;;;;0.13;99.54;97483.88;4183048;84;21029;-86
2022/04/02 03:25:21;;;;;;;21.23;11.53;;;;;;;0.13;99.54;97483.88;4186807;83;21021;-86
2022/04/02 03:31:23;;;;;;;16.05;11.00;;;;;;;0.16;99.39;97483.97;4179816;83;21092;-86
2022/04/02 03:37:25;;;;;;;15.48;10.65;;;;;;;0.16;99.31;97485.32;4182269;84;21001;-86
2022/04/02 03:43:27;;;;;;;15.13;11.10;;;;;;;0.16;99.29;97486.66;4183811;83;21073;-87
2022/04/02 03:49:30;;;;;;;13.98;10.53;;;;;;;0.04;99.26;97477.31;4183796;84;20989;-86
2022/04/02 03:55:32;;;;;;;13.58;9.85;;;;;;;0.13;98.97;97500.02;4170365;84;21593;-87
2022/04/02 04:01:35;;;;;;;12.68;9.85;;;;;;;0.13;98.97;97500.02;4177580;84;21068;-87
2022/04/02 04:07:38;;;;;;;13.95;10.63;;;;;;;0.16;99.20;97510.13;4158690;83;21096;-88
2022/04/02 04:13:40;;;;;;;17.82;10.53;;;;;;;0.15;99.26;97515.27;4155490;84;21081;-88
2022/04/02 04:19:41;;;;;;;18.65;10.63;;;;;;;0.17;99.31;97519.20;4135009;84;21040;-87
2022/04/02 04:25:43;;;;;;;15.90;11.22;;;;;;;0.16;99.17;97530.30;4188449;84;21062;-86
2022/04/02 04:31:46;;;;;;;15.20;10.43;;;;;;;0.16;99.26;97525.69;4175096;84;21054;-87
2022/04/02 04:37:47;;;;;;;14.18;10.48;;;;;;;0.21;99.34;97528.69;4137728;84;20996;-86
2022/04/02 04:43:54;;;;;;;;;;;;;;;0.10;99.17;97510.13;4200397;82;21488;-87
2022/04/02 04:49:57;;;;;;;13.08;9.65;;;;;;;0.19;99.05;97540.38;4200248;83;20170;-87
2022/04/02 04:56:00;;;;;;;13.20;9.65;;;;;;;0.16;98.74;97543.17;4222327;82;21618;-86
2022/04/02 05:02:04;;;;;;;13.45;10.13;;;;;;;0.16;98.74;97543.17;4241736;82;22292;-86
2022/04/02 05:08:08;;;;;;;14.73;10.03;;;;;;;0.16;98.83;97543.76;4234560;82;21090;-87
2022/04/02 05:14:13;;;;;;;12.90;8.75;;;;;;;0.15;98.73;97551.59;4244089;82;21050;-87
2022/04/02 05:20:15;;;;;;;13.75;9.50;;;;;;;0.15;98.78;97551.03;4145624;83;21500;-87
2022/04/02 05:26:19;;;;;;;12.50;9.00;;;;;;;0.09;98.47;97557.79;4038379;86;20995;-86
2022/04/02 05:32:22;;;;;;;13.80;9.10;;;;;;;0.09;98.47;97557.79;4142337;84;21151;-87
2022/04/02 05:38:23;;;;;;;14.78;9.75;;;;;;;0.09;98.64;97564.52;4150607;84;21065;-86
2022/04/02 05:44:25;;;;;;;13.75;8.88;;;;;;;0.10;98.88;97574.14;4147915;83;21124;-87
2022/04/02 05:50:27;;;;;;;11.57;8.45;;;;;;;0.12;98.86;97577.84;4153204;83;21687;-87
2022/04/02 05:56:30;;;;;;;13.25;9.95;;;;;;;0.16;98.83;97578.16;4156301;84;21044;-87
2022/04/02 06:02:31;;;;;;;14.30;10.15;;;;;;;0.22;98.67;97588.14;4168632;84;21057;-87
2022/04/02 06:08:33;;;;;;;15.80;10.40;;;;;;;0.22;98.67;97588.14;4169875;83;21070;-87
2022/04/02 06:14:36;;;;;;;12.80;9.30;;;;;;;0.23;98.74;97586.45;4182300;84;21076;-88
2022/04/02 06:20:37;;;;;;;12.98;9.08;;;;;;;0.15;98.42;97579.30;4167354;83;21564;-87
2022/04/02 06:26:44;;;;;;;11.83;9.00;;;;;;;0.16;98.33;97580.09;4177798;83;21069;-87
2022/04/02 06:32:46;;;;;;;16.45;9.43;;;;;;;0.16;98.33;97580.09;4159091;84;21022;-85
2022/04/02 06:38:50;;;;;;;12.18;9.05;;;;;;;0.06;98.29;97569.79;4144264;84;21101;-87
2022/04/02 06:44:52;;;;;;;12.80;9.05;;;;;;;0.24;98.35;97602.81;4094523;84;22530;-86
2022/04/02 06:50:54;;;;;;;14.20;9.63;;;;;;;0.26;98.53;97603.81;4153767;84;21016;-87
2022/04/02 06:56:55;;;;;;;17.77;9.70;;;;;;;0.26;98.39;97609.98;4228966;82;21059;-86
2022/04/02 07:02:57;;;;;;;22.32;11.57;;;;;;;0.30;98.42;97612.20;4224957;82;21070;-87
2022/04/02 07:08:59;;;;;;;18.50;11.05;;;;;;;0.32;98.42;97622.08;4245756;82;21231;-88
2022/04/02 07:15:01;;;;;;;18.60;11.93;;;;;;;0.37;98.06;97619.16;4299553;82;21033;-87
2022/04/02 07:21:03;;;;;;;21.27;12.03;;;;;;;0.32;97.91;97623.42;4290663;82;20982;-86
2022/04/02 07:27:05;;;;;;;28.15;15.40;;;;;;;0.39;98.08;97630.37;4281536;83;21042;-87
2022/04/02 07:33:07;;;;;;;19.50;11.15;;;;;;;0.39;98.08;97630.37;4177183;84;22283;-86
2022/04/02 07:39:32;;;;;;;17.05;11.35;;;;;;;0.43;98.10;97637.17;4166438;84;21626;-86
2022/04/02 07:45:45;;;;;;;16.25;10.78;;;;;;;0.46;98.22;97645.36;4237051;83;21036;-88
2022/04/02 07:51:53;;;;;;;16.25;11.03;;;;;;;0.36;97.68;97655.83;4225276;83;21040;-87
2022/04/02 07:57:59;;;;;;;39.53;17.50;;;;;;;0.30;97.58;97655.85;4225147;83;21099;-86
2022/04/02 08:04:06;;;;;;;16.52;11.63;;;;;;;0.22;97.51;97665.59;4234065;83;21039;-86
2022/04/02 08:10:12;;;;;;;16.57;11.70;;;;;;;0.15;97.48;97670.78;4226477;83;21698;-86
2022/04/02 08:16:17;;;;;;;18.15;12.20;;;;;;;0.23;97.89;97677.95;4194923;83;21047;-87
2022/04/02 08:22:18;;;;;;;20.52;12.60;;;;;;;0.27;97.45;97683.45;4223197;82;21030;-86
2022/04/02 08:28:25;;;;;;;16.52;11.22;;;;;;;0.28;97.62;97687.14;4276981;82;21050;-86
2022/04/02 08:34:51;;;;;;;24.35;13.55;;;;;;;0.34;97.97;97687.12;4269755;82;21042;-86
2022/04/02 08:41:21;;;;;;;16.13;11.20;;;;;;;0.36;97.26;97694.86;4274958;81;21117;-87
2022/04/02 08:48:02;;;;;;;14.58;10.88;;;;;;;0.29;97.10;97700.02;4278453;82;22118;-87
2022/04/02 08:54:07;;;;;;;17.45;11.97;;;;;;;0.26;97.52;97702.84;4264482;82;21052;-88
2022/04/02 09:00:13;;;;;;;18.52;12.47;;;;;;;0.16;97.04;97711.36;4266183;82;21554;-88
2022/04/02 09:06:47;;;;;;;17.60;12.25;;;;;;;0.16;97.04;97711.36;4262769;81;21710;-88
2022/04/02 09:13:17;;;;;;;29.55;14.90;;;;;;;0.10;96.87;97712.72;4138836;82;21964;-88
2022/04/02 09:19:31;;;;;;;22.58;14.98;;;;;;;0.08;96.81;97712.84;4198905;83;21202;-87
2022/04/02 09:26:00;;;;;;;19.92;12.90;;;;;;;0.06;96.68;97732.56;4218466;82;21054;-87
2022/04/02 09:32:24;;;;;;;23.18;15.63;;;;;;;-0.10;96.72;97713.08;4130116;85;21718;-86
2022/04/02 09:39:01;;;;;;;16.87;11.97;;;;;;;0.04;96.45;97736.94;4154716;84;21935;-88
2022/04/02 09:45:13;;;;;;;22.35;13.88;;;;;;;0.05;96.54;97747.92;4183902;83;21004;-87
2022/04/02 09:51:18;;;;;;;19.48;12.68;;;;;;;0.06;96.33;97751.41;4118062;85;21071;-87
2022/04/02 09:57:26;;;;;;;29.27;16.87;;;;;;;0.04;96.24;97759.81;4185547;83;21035;-86
2022/04/02 10:03:47;;;;;;;19.92;14.30;;;;;;;0.08;96.15;97761.28;4190708;84;21080;-87
2022/04/02 10:09:51;;;;;;;25.40;13.60;;;;;;;0.04;95.98;97761.16;4193146;83;21007;-86
2022/04/02 10:15:55;;;;;;;20.68;13.80;;;;;;;0.00;95.80;97742.78;4198677;84;21051;-87
2022/04/02 10:22:04;;;;;;;22.60;14.47;;;;;;;0.08;95.75;97760.70;4181687;84;21024;-87
2022/04/02 10:28:09;;;;;;;35.90;21.50;;;;;;;0.15;95.98;97762.28;4188196;83;21047;-86
2022/04/02 10:34:41;;;;;;;21.90;15.58;;;;;;;0.07;95.88;97747.58;4189984;83;21083;-87
2022/04/02 10:40:51;;;;;;;33.53;17.40;;;;;;;0.22;95.96;97776.53;4189911;83;21071;-87
2022/04/02 10:46:56;;;;;;;30.30;16.82;;;;;;;0.21;95.57;97781.11;4183212;84;21064;-86
2022/04/02 10:53:01;;;;;;;31.70;16.73;;;;;;;0.16;95.42;97782.68;4183463;83;20976;-87
2022/04/02 10:59:09;;;;;;;24.50;15.20;;;;;;;0.10;95.24;97785.38;4122828;85;21035;-86
2022/04/02 11:05:17;;;;;;;22.52;13.98;;;;;;;0.06;95.19;97787.17;4183870;83;21111;-85
2022/04/02 11:11:27;;;;;;;29.65;16.30;;;;;;;0.03;94.74;97797.27;4194314;83;21063;-86
2022/04/02 11:17:32;;;;;;;37.45;20.55;;;;;;;-0.03;94.87;97803.41;4234367;82;21106;-87
2022/04/02 11:23:57;;;;;;;22.30;14.87;;;;;;;-0.16;94.68;97790.28;4219490;82;21031;-87
2022/04/02 11:30:07;;;;;;;34.53;17.10;;;;;;;-0.01;94.69;97817.88;4240275;82;21114;-87
2022/04/02 11:36:14;;;;;;;31.10;14.87;;;;;;;-0.09;94.13;97805.30;4126921;84;21899;-86
2022/04/02 11:42:19;;;;;;;24.57;14.85;;;;;;;-0.09;94.13;97805.30;4126651;84;21055;-86
2022/04/02 11:48:24;;;;;;;31.02;18.25;;;;;;;-0.07;94.41;97825.39;4162762;84;21124;-86
2022/04/02 11:54:26;;;;;;;39.63;19.53;;;;;;;-0.08;94.43;97833.79;4154204;83;21006;-86
2022/04/02 12:00:31;;;;;;;92.57;29.05;;;;;;;-0.06;94.53;97837.70;4161700;84;21500;-86
2022/04/02 12:06:37;;;;;;;23.32;16.77;;;;;;;-0.06;94.45;97840.39;4153599;84;21076;-86
2022/04/02 12:12:48;;;;;;;30.45;16.75;;;;;;;-0.09;94.04;97849.14;4167090;83;21640;-86
2022/04/02 12:18:57;;;;;;;39.08;19.10;;;;;;;-0.04;94.13;97847.58;4144713;84;21059;-86
2022/04/02 12:25:03;;;;;;;25.70;16.17;;;;;;;-0.08;93.97;97853.97;4193218;84;22265;-86
2022/04/02 12:31:06;;;;;;;35.50;19.17;;;;;;;-0.10;94.13;97859.68;4181777;84;21000;-85
2022/04/02 12:37:09;;;;;;;22.87;15.65;;;;;;;-0.09;93.87;97865.27;4191388;84;21047;-85
2022/04/02 12:43:11;;;;;;;29.50;16.12;;;;;;;-0.06;94.06;97861.92;4179285;83;21059;-85
2022/04/02 12:49:35;;;;;;;27.87;16.95;;;;;;;-0.03;93.63;97867.98;4181654;84;21547;-84
2022/04/02 12:55:36;;;;;;;30.02;16.80;;;;;;;-0.11;93.70;97861.36;4132885;83;21062;-84
2022/04/02 13:01:38;;;;;;;27.48;17.30;;;;;;;-0.07;93.43;97873.02;4130202;84;21636;-85
2022/04/02 13:07:40;;;;;;;25.43;17.52;;;;;;;-0.12;93.72;97875.36;4128308;83;21064;-84
2022/04/02 13:13:43;;;;;;;33.95;18.70;;;;;;;-0.08;93.51;97882.21;4211979;82;21085;-83
2022/04/02 13:26:27;;;;;;;26.95;17.67;;;;;;;-0.13;93.25;97891.28;4109762;85;21012;-85
2022/04/02 13:33:12;;;;;;;34.23;19.95;;;;;;;-0.16;92.99;97899.22;4103863;85;21962;-86
2022/04/02 13:39:18;;;;;;;44.48;22.37;;;;;;;-0.15;93.17;97900.23;4185577;84;21039;-85
2022/04/02 13:45:23;;;;;;;59.73;24.45;;;;;;;-0.16;92.90;97908.63;4185883;84;21031;-85
2022/04/02 13:51:48;;;;;;;50.92;23.70;;;;;;;-0.25;93.01;97915.42;4171929;83;21646;-85
2022/04/02 13:57:51;;;;;;;36.83;20.62;;;;;;;-0.27;93.12;97923.03;4178524;84;21095;-85
2022/04/02 14:04:07;;;;;;;54.65;25.85;;;;;;;-0.28;93.00;97925.50;4189914;83;21039;-85
2022/04/02 14:10:12;;;;;;;31.90;20.20;;;;;;;-0.25;92.90;97936.17;4181002;84;21295;-85
2022/04/02 14:16:16;;;;;;;30.55;18.37;;;;;;;-0.27;92.66;97940.51;4207306;82;22778;-84
2022/04/02 14:22:23;;;;;;;27.67;16.67;;;;;;;-0.34;92.57;97943.50;4233168;83;21019;-86
2022/04/02 14:28:35;;;;;;;62.27;22.02;;;;;;;-0.37;92.52;97942.82;4261937;83;21002;-86
2022/04/02 14:35:14;;;;;;;27.67;17.60;;;;;;;-0.33;92.51;97943.75;4227568;82;21047;-86
2022/04/02 14:42:06;;;;;;;31.07;18.67;;;;;;;-0.32;92.58;97948.00;4206761;83;21151;-86
2022/04/02 14:48:44;;;;;;;26.68;17.45;;;;;;;-0.31;92.40;97957.09;4226127;82;21011;-87
2022/04/02 14:55:24;;;;;;;29.82;16.32;;;;;;;-0.31;92.40;97957.09;4237652;82;21051;-88
2022/04/02 15:02:07;;;;;;;38.15;20.68;;;;;;;-0.28;92.32;97960.46;4228180;82;20974;-90
2022/04/02 15:08:53;;;;;;;29.82;16.90;;;;;;;-0.26;92.44;97966.30;4222442;83;21045;-88
2022/04/02 15:15:01;;;;;;;37.45;20.20;;;;;;;-0.21;92.43;97966.11;4237580;82;21578;-89
2022/04/02 15:21:15;;;;;;;25.85;15.23;;;;;;;-0.15;92.56;97976.89;4170375;84;21032;-90
2022/04/02 15:27:19;;;;;;;27.40;15.93;;;;;;;-0.19;92.85;97969.81;4155814;83;22020;-91
2022/04/02 15:33:27;;;;;;;28.77;16.95;;;;;;;-0.03;92.53;97986.35;4149160;83;21055;-90
2022/04/02 15:39:36;;;;;;;26.62;16.80;;;;;;;-0.01;92.50;97989.51;4175530;83;21067;-91
2022/04/02 15:45:39;;;;;;;25.17;15.90;;;;;;;0.02;92.52;97994.78;4172367;83;21024;-90
2022/04/02 15:52:03;;;;;;;28.52;17.42;;;;;;;0.03;92.42;98001.75;4170208;84;20999;-89
2022/04/02 15:58:31;;;;;;;35.85;19.92;;;;;;;0.06;92.67;98010.51;4126341;83;21067;-89
2022/04/02 16:04:32;;;;;;;41.68;22.90;;;;;;;-0.05;92.56;97997.23;4197158;83;21478;-88
2022/04/02 16:10:34;;;;;;;42.58;23.18;;;;;;;-0.05;92.56;97997.23;4188500;83;21087;-87
2022/04/02 16:16:56;;;;;;;39.23;23.95;;;;;;;-0.05;92.90;98010.10;4195390;82;22122;-88
2022/04/02 16:22:58;;;;;;;41.68;23.52;;;;;;;0.07;93.15;98027.42;4141377;84;21472;-89
2022/04/02 16:29:00;;;;;;;48.95;25.72;;;;;;;0.06;93.17;98033.38;4235674;82;21045;-90
2022/04/02 16:35:15;;;;;;;47.83;26.33;;;;;;;0.00;93.14;98043.54;4231502;82;21622;-91
2022/04/02 16:41:18;;;;;;;52.38;30.48;;;;;;;0.00;93.14;98043.54;4225188;82;21065;-89
2022/04/02 16:47:25;;;;;;;57.05;31.02;;;;;;;-0.03;93.48;98047.44;4236927;82;21058;-90
2022/04/02 16:53:27;;;;;;;57.08;32.65;;;;;;;-0.05;93.57;98053.73;4139979;84;21621;-88
2022/04/02 16:59:36;;;;;;;60.58;33.50;;;;;;;-0.09;93.59;98053.59;4140533;84;21102;-87
2022/04/02 17:05:42;;;;;;;65.03;33.48;;;;;;;-0.13;93.69;98059.41;4081935;84;21627;-88
2022/04/02 17:11:44;;;;;;;;;;;;;;;-0.16;93.96;98066.76;4222092;83;21097;-89
2022/04/02 17:17:46;;;;;;;65.83;34.65;;;;;;;-0.22;94.25;98069.41;4175672;83;20174;-88
2022/04/02 17:23:47;;;;;;;73.05;35.43;;;;;;;-0.20;94.38;98079.84;4128429;84;21043;-88
2022/04/02 17:29:50;;;;;;;66.85;34.80;;;;;;;-0.22;94.33;98085.55;4232281;81;66399;-88
2022/04/02 17:35:55;;;;;;;71.07;37.85;;;;;;;-0.27;94.73;98098.42;4253533;82;20976;-88
2022/04/02 17:42:10;;;;;;;70.30;38.83;;;;;;;-0.27;94.73;98098.42;4343810;81;20936;-88
2022/04/02 17:48:24;;;;;;;73.80;40.15;;;;;;;-0.32;94.81;98105.33;4320458;80;20972;-86
2022/04/02 17:54:44;;;;;;;79.10;44.70;;;;;;;-0.44;94.90;98103.32;4263066;83;21011;-87
2022/04/02 18:00:54;;;;;;;83.62;45.78;;;;;;;-0.31;95.18;98127.06;4218092;84;20978;-86
2022/04/02 18:06:55;;;;;;;86.10;46.18;;;;;;;-0.27;95.02;98126.66;4343044;80;21695;-86
2022/04/02 18:12:56;;;;;;;89.72;48.58;;;;;;;-0.27;95.02;98126.66;4379747;80;21015;-87
2022/04/02 18:18:59;;;;;;;91.17;49.42;;;;;;;-0.42;95.26;98109.17;4373596;80;21007;-89
2022/04/02 18:25:01;;;;;;;86.60;47.50;;;;;;;-0.39;95.30;98120.62;4383478;80;21600;-87
2022/04/02 18:31:02;;;;;;;94.13;53.38;;;;;;;-0.31;95.53;98135.92;4343056;80;20983;-89
2022/04/02 18:37:05;;;;;;;88.37;49.00;;;;;;;-0.29;95.55;98147.16;4365274;80;21015;-87
2022/04/02 18:43:18;;;;;;;85.40;47.75;;;;;;;-0.28;95.63;98147.38;4296872;81;21954;-88
2022/04/02 18:49:20;;;;;;;86.50;49.70;;;;;;;-0.27;95.73;98151.63;4291481;81;20993;-88
2022/04/02 18:55:22;;;;;;;97.30;53.58;;;;;;;-0.28;95.80;98157.33;4305471;81;20941;-88
2022/04/02 19:01:31;;;;;;;91.97;53.10;;;;;;;-0.31;95.91;98166.85;4242597;80;10000118;-88
2022/04/02 19:07:35;;;;;;;89.47;51.53;;;;;;;-0.31;96.01;98176.81;4271918;83;21038;-88
2022/04/02 19:13:37;;;;;;;94.58;51.35;;;;;;;-0.31;95.84;98176.81;4262431;82;21061;-86
2022/04/02 19:19:39;;;;;;;121.55;58.17;;;;;;;-0.32;96.22;98180.63;4196242;83;21031;-87
2022/04/02 19:25:41;;;;;;;148.78;75.00;;;;;;;-0.35;96.31;98180.72;4179661;84;20984;-87
2022/04/02 19:31:43;;;;;;;139.65;72.10;;;;;;;-0.32;96.46;98186.80;4220694;84;20988;-87
2022/04/02 19:37:51;;;;;;;122.33;65.75;;;;;;;-0.30;96.47;98191.28;4228007;83;21012;-87
2022/04/02 19:43:58;;;;;;;108.75;59.63;;;;;;;-0.29;96.49;98190.73;4340507;81;21021;-88
2022/04/02 19:49:58;;;;;;;113.50;59.27;;;;;;;-0.34;96.85;98178.80;4339440;81;21004;-86
2022/04/02 19:55:59;;;;;;;103.72;55.80;;;;;;;-0.34;96.85;98178.80;4333270;81;21024;-86
2022/04/02 20:02:02;;;;;;;100.00;55.92;;;;;;;-0.23;96.61;98194.27;4212611;81;9999814;-86
2022/04/02 20:08:05;;;;;;;89.03;49.73;;;;;;;-0.21;96.75;98191.25;4339299;81;21058;-87
2022/04/02 20:14:06;;;;;;;88.80;50.15;;;;;;;-0.20;96.58;98188.23;4332164;81;21079;-87
2022/04/02 20:20:09;;;;;;;90.17;47.33;;;;;;;-0.22;96.70;98189.11;4333490;81;20985;-88
2022/04/02 20:26:11;;;;;;;79.62;43.00;;;;;;;-0.25;96.76;98187.06;4334456;81;20969;-88
2022/04/02 20:32:13;;;;;;;78.05;41.18;;;;;;;-0.25;96.64;98193.79;4301502;81;22022;-89
2022/04/02 20:38:14;;;;;;;87.15;39.42;;;;;;;-0.28;96.97;98194.44;4300821;81;20953;-89
2022/04/02 20:44:18;;;;;;;74.12;38.42;;;;;;;-0.22;97.04;98191.80;4298885;81;21060;-89
2022/04/02 20:50:21;;;;;;;61.10;33.35;;;;;;;-0.28;97.02;98176.16;4300227;81;21520;-89
2022/04/02 20:56:24;;;;;;;55.23;30.48;;;;;;;-0.12;96.98;98198.72;4304087;81;21048;-89
2022/04/02 21:02:27;;;;;;;49.73;27.50;;;;;;;-0.20;96.80;98190.92;4302365;81;21994;-89
2022/04/02 21:08:32;;;;;;;45.45;26.65;;;;;;;-0.05;96.70;98217.27;4306256;81;21075;-88
2022/04/02 21:14:35;;;;;;;51.95;25.62;;;;;;;-0.04;96.68;98220.21;4302134;81;21024;-88
2022/04/02 21:20:38;;;;;;;39.40;21.90;;;;;;;-0.03;96.69;98218.28;4313111;81;21042;-88
2022/04/02 21:26:40;;;;;;;34.90;17.85;;;;;;;-0.04;96.76;98222.90;4311479;81;21088;-88
2022/04/02 21:32:45;;;;;;;31.57;15.88;;;;;;;-0.03;96.68;98225.81;4237670;83;22225;-87
2022/04/02 21:38:47;;;;;;;32.05;18.65;;;;;;;-0.03;96.67;98222.32;4354737;81;21589;-87
2022/04/02 21:44:52;;;;;;;25.00;12.43;;;;;;;-0.14;96.82;98222.45;4350704;81;21662;-86
2022/04/02 21:50:53;;;;;;;35.85;17.35;;;;;;;-0.08;96.98;98227.91;4278462;82;21892;-85
2022/04/02 21:56:56;;;;;;;27.55;16.45;;;;;;;-0.10;96.70;98222.05;4237180;83;21033;-86
2022/04/02 22:02:58;;;;;;;32.70;18.25;;;;;;;-0.31;96.54;98216.61;4349852;81;21540;-86
2022/04/02 22:09:01;;;;;;;34.88;19.62;;;;;;;-0.21;97.26;98229.70;4359682;81;22323;-87
2022/04/02 22:15:02;;;;;;;42.98;23.62;;;;;;;-0.15;97.28;98228.95;4357340;81;21050;-87
2022/04/02 22:21:04;;;;;;;59.80;33.50;;;;;;;-0.14;97.37;98227.83;4343610;81;21074;-88
2022/04/02 22:27:09;;;;;;;73.90;39.48;;;;;;;-0.10;97.26;98237.65;4347965;81;21670;-87
2022/04/02 22:33:12;;;;;;;72.30;42.43;;;;;;;-0.10;97.27;98243.03;4329743;81;21028;-87
2022/04/02 22:39:14;;;;;;;70.87;39.48;;;;;;;-0.15;97.37;98227.61;4305347;81;21091;-87
2022/04/02 22:45:15;;;;;;;79.97;40.73;;;;;;;-0.06;97.05;98244.50;4313969;81;21084;-86
2022/04/02 22:51:18;;;;;;;68.33;38.15;;;;;;;-0.15;97.51;98243.20;4350413;80;20999;-86
2022/04/02 22:57:24;;;;;;;63.65;35.45;;;;;;;-0.24;97.65;98219.59;4404895;80;21042;-86
2022/04/02 23:03:27;;;;;;;68.42;36.23;;;;;;;-0.24;97.65;98219.59;4279614;82;21151;-86
2022/04/02 23:09:31;;;;;;;58.45;33.02;;;;;;;-0.13;97.57;98254.44;4241223;83;21037;-85
2022/04/02 23:15:33;;;;;;;49.13;27.30;;;;;;;-0.13;97.57;98254.44;4316623;81;21975;-84
2022/04/02 23:21:34;;;;;;;39.83;23.45;;;;;;;-0.15;97.73;98269.30;4244325;83;21030;-85
2022/04/02 23:27:36;;;;;;;30.77;18.30;;;;;;;-0.17;97.82;98270.98;4240590;84;21007;-84
2022/04/02 23:33:38;;;;;;;26.37;14.70;;;;;;;-0.20;97.86;98273.52;4248060;82;21043;-84
2022/04/02 23:39:39;;;;;;;26.15;15.30;;;;;;;-0.19;98.14;98274.53;4322591;81;21051;-85
2022/04/02 23:45:41;;;;;;;24.90;15.30;;;;;;;-0.19;98.14;98274.53;4320924;81;21006;-84
2022/04/02 23:51:43;;;;;;;28.47;15.80;;;;;;;-0.18;97.99;98276.13;4245136;82;21422;-84
2022/04/02 23:57:46;;;;;;;28.98;15.32;;;;;;;-0.15;97.95;98282.75;4315533;81;21016;-84
